Time;durP1;ratioP1;P1;durP2;ratioP2;P2;SDS_P1;SDS_P2;PMS_P1;PMS_P2;Temp;Humidity;BMP_temperature;BMP_pressure;BME280_temperature;BME280_humidity;BME280_pressure;Samples;Min_cycle;Max_cycle;Signal;HPM_P1;HPM_P2
2023/05/15 00:02:11;;;;;;;93.75;59.47;;;10.70;99.90;;;;;;4962916;28;20092;-65
2023/05/15 00:04:37;;;;;;;92.97;58.45;;;10.70;99.90;;;;;;4982823;28;20491;-65
2023/05/15 00:07:03;;;;;;;98.20;61.78;;;10.60;99.90;;;;;;4978399;28;20038;-65
2023/05/15 00:09:29;;;;;;;94.60;58.03;;;10.60;99.90;;;;;;4963889;28;20088;-65
2023/05/15 00:11:55;;;;;;;96.68;60.00;;;10.60;99.90;;;;;;4983459;28;20714;-65
2023/05/15 00:14:21;;;;;;;104.60;63.67;;;10.60;99.90;;;;;;4972291;28;20048;-64
2023/05/15 00:16:46;;;;;;;108.50;63.50;;;10.60;99.90;;;;;;4967963;28;20536;-65
2023/05/15 00:19:13;;;;;;;99.93;60.58;;;10.50;99.90;;;;;;4982963;28;20642;-65
2023/05/15 00:21:39;;;;;;;108.28;62.50;;;10.50;99.90;;;;;;4965888;28;20042;-65
2023/05/15 00:24:04;;;;;;;103.35;62.97;;;10.50;99.90;;;;;;4981875;28;20074;-65
2023/05/15 00:26:30;;;;;;;103.68;63.22;;;10.50;99.90;;;;;;4982205;28;20057;-64
2023/05/15 00:28:56;;;;;;;116.85;66.72;;;10.50;99.90;;;;;;4977723;28;20053;-65
2023/05/15 00:31:22;;;;;;;122.68;67.70;;;10.50;99.90;;;;;;5014502;28;20069;-65
2023/05/15 00:33:47;;;;;;;119.20;66.38;;;10.50;99.90;;;;;;4984686;28;20565;-65
2023/05/15 00:36:13;;;;;;;112.45;63.05;;;10.50;99.90;;;;;;5020956;28;20045;-65
2023/05/15 00:38:39;;;;;;;111.47;66.13;;;10.50;99.90;;;;;;4994044;28;20376;-65
2023/05/15 00:41:06;;;;;;;124.38;69.07;;;10.40;99.90;;;;;;4962488;28;20042;-65
2023/05/15 00:43:33;;;;;;;120.43;67.20;;;10.40;99.90;;;;;;4989913;28;20034;-65
2023/05/15 00:46:01;;;;;;;111.93;64.47;;;10.30;99.90;;;;;;4979837;28;20116;-65
2023/05/15 00:48:28;;;;;;;123.65;68.15;;;10.40;99.90;;;;;;4967843;28;20053;-65
2023/05/15 00:50:56;;;;;;;137.57;70.28;;;10.40;99.90;;;;;;4982867;28;20367;-65
2023/05/15 00:53:23;;;;;;;170.02;70.60;;;10.30;99.90;;;;;;5019083;28;20094;-65
2023/05/15 00:55:49;;;;;;;161.60;76.00;;;10.30;99.90;;;;;;5022434;28;20057;-65
2023/05/15 00:58:17;;;;;;;177.90;76.25;;;10.30;99.90;;;;;;4981570;28;20382;-65
2023/05/15 01:00:45;;;;;;;155.45;70.95;;;10.40;99.90;;;;;;5013197;28;20108;-65
2023/05/15 01:03:11;;;;;;;174.27;70.95;;;10.30;99.90;;;;;;4978516;28;20581;-65
2023/05/15 01:05:36;;;;;;;160.75;69.47;;;10.30;99.90;;;;;;4984627;28;20038;-65
2023/05/15 01:08:18;;;;;;;165.80;76.90;;;10.30;99.90;;;;;;4985380;28;20077;-64
2023/05/15 01:10:46;;;;;;;159.40;72.75;;;10.30;99.90;;;;;;5012922;28;20459;-65
2023/05/15 01:13:13;;;;;;;183.40;79.15;;;10.40;99.90;;;;;;5008134;28;20101;-65
2023/05/15 01:15:39;;;;;;;195.52;77.97;;;10.40;99.90;;;;;;4984764;28;20042;-64
2023/05/15 01:18:06;;;;;;;188.25;78.65;;;10.40;99.90;;;;;;4977864;28;20041;-66
2023/05/15 01:21:00;;;;;;;216.75;83.07;;;10.50;99.90;;;;;;4980092;28;20042;-64
2023/05/15 01:23:25;;;;;;;;;;;10.50;99.90;;;;;;4978684;28;20329;-64
2023/05/15 01:26:05;;;;;;;192.27;76.35;;;10.40;99.90;;;;;;4990408;28;20024;-65
2023/05/15 01:28:36;;;;;;;177.05;76.32;;;10.50;99.90;;;;;;4993148;28;20255;-64
2023/05/15 01:31:09;;;;;;;137.27;65.22;;;10.30;99.90;;;;;;4963365;28;20050;-64
2023/05/15 01:33:40;;;;;;;137.75;67.47;;;10.30;99.90;;;;;;4985013;28;20046;-64
2023/05/15 01:36:08;;;;;;;146.75;71.70;;;10.40;99.90;;;;;;5006134;28;20050;-64
2023/05/15 01:38:37;;;;;;;149.40;66.97;;;10.30;99.90;;;;;;4963083;28;20165;-65
2023/05/15 01:41:41;;;;;;;138.27;63.00;;;10.20;99.90;;;;;;4999438;28;20096;-64
2023/05/15 01:44:16;;;;;;;;;;;10.20;99.90;;;;;;5016787;28;20041;-65
2023/05/15 01:46:44;;;;;;;163.23;63.45;;;10.20;99.90;;;;;;4979124;28;19929;-64
2023/05/15 01:49:12;;;;;;;142.13;61.83;;;10.30;99.90;;;;;;5014554;28;20515;-64
2023/05/15 01:51:40;;;;;;;168.60;66.28;;;10.20;99.90;;;;;;4977033;28;20049;-64
2023/05/15 01:54:07;;;;;;;155.30;63.08;;;10.20;99.90;;;;;;4980951;28;20046;-64
2023/05/15 01:56:34;;;;;;;172.98;64.75;;;10.20;99.90;;;;;;5005150;28;20065;-65
2023/05/15 01:59:02;;;;;;;142.02;61.58;;;10.30;99.90;;;;;;4974469;28;20049;-66
2023/05/15 02:01:30;;;;;;;133.63;60.58;;;10.20;99.90;;;;;;5012506;28;20475;-64
2023/05/15 02:03:55;;;;;;;150.50;63.83;;;10.30;99.90;;;;;;4982338;28;20180;-64
2023/05/15 02:06:23;;;;;;;148.13;62.53;;;10.20;99.90;;;;;;4985345;28;20050;-65
2023/05/15 02:08:50;;;;;;;167.23;68.90;;;10.30;99.90;;;;;;4997323;28;20042;-65
2023/05/15 02:11:15;;;;;;;136.02;57.95;;;10.10;99.90;;;;;;4963911;28;20052;-64
2023/05/15 02:13:42;;;;;;;171.82;66.15;;;10.20;99.90;;;;;;4965631;28;20054;-65
2023/05/15 02:16:08;;;;;;;152.50;63.47;;;10.20;99.90;;;;;;4963230;28;20042;-65
2023/05/15 02:18:33;;;;;;;158.48;62.92;;;10.20;99.90;;;;;;4981826;28;20400;-64
2023/05/15 02:21:02;;;;;;;164.32;59.75;;;10.30;99.90;;;;;;4979622;28;20564;-65
2023/05/15 02:23:28;;;;;;;368.27;66.45;;;10.30;99.90;;;;;;4978064;28;20804;-64
2023/05/15 02:26:12;;;;;;;258.45;62.55;;;10.30;99.90;;;;;;4977262;28;20052;-64
2023/05/15 02:28:53;;;;;;;228.15;54.35;;;10.30;99.90;;;;;;4979995;28;20070;-66
2023/05/15 02:31:42;;;;;;;294.92;62.95;;;10.20;99.90;;;;;;4980925;28;20338;-64
2023/05/15 02:34:21;;;;;;;406.98;60.22;;;10.10;99.90;;;;;;5015739;28;20041;-64
2023/05/15 02:36:50;;;;;;;499.67;61.45;;;10.20;99.90;;;;;;5012136;28;20046;-65
2023/05/15 02:39:17;;;;;;;569.33;63.50;;;10.00;99.90;;;;;;4967030;28;20467;-64
2023/05/15 02:41:45;;;;;;;686.78;72.95;;;10.10;99.90;;;;;;4978585;28;20322;-64
2023/05/15 02:44:12;;;;;;;509.92;65.70;;;10.10;99.90;;;;;;4962814;28;20041;-64
2023/05/15 02:46:38;;;;;;;550.63;67.05;;;10.00;99.90;;;;;;4994736;28;20458;-65
2023/05/15 02:49:04;;;;;;;409.48;67.38;;;10.10;99.90;;;;;;4960347;28;20042;-64
2023/05/15 02:51:31;;;;;;;492.95;72.00;;;10.00;99.90;;;;;;4983000;28;20042;-65
2023/05/15 02:53:59;;;;;;;452.95;70.88;;;9.90;99.90;;;;;;4983705;28;20316;-64
2023/05/15 02:56:25;;;;;;;474.73;79.85;;;9.90;99.90;;;;;;4983800;28;20042;-64
2023/05/15 02:58:51;;;;;;;352.98;68.18;;;9.90;99.90;;;;;;5016161;28;20046;-64
2023/05/15 03:01:16;;;;;;;382.75;72.50;;;9.90;99.90;;;;;;5006185;28;20396;-67
2023/05/15 03:03:42;;;;;;;542.60;74.55;;;9.90;99.90;;;;;;4978856;28;20460;-65
2023/05/15 03:06:08;;;;;;;330.40;71.80;;;9.90;99.90;;;;;;4987744;28;20061;-65
2023/05/15 03:08:33;;;;;;;308.95;79.20;;;10.00;99.90;;;;;;4988802;28;20042;-65
2023/05/15 03:10:59;;;;;;;356.45;74.75;;;10.00;99.90;;;;;;4963729;28;20033;-65
2023/05/15 03:13:25;;;;;;;345.73;80.95;;;9.90;99.90;;;;;;4976526;28;20467;-65
2023/05/15 03:15:52;;;;;;;246.25;80.63;;;9.90;99.90;;;;;;4965298;28;20088;-64
2023/05/15 03:18:18;;;;;;;311.90;83.47;;;9.90;99.90;;;;;;4966754;28;20107;-65
2023/05/15 03:20:44;;;;;;;269.33;82.30;;;9.90;99.90;;;;;;4963836;28;20081;-65
2023/05/15 03:23:10;;;;;;;205.65;75.28;;;10.00;99.90;;;;;;5004326;28;20702;-66
2023/05/15 03:25:35;;;;;;;216.10;73.72;;;9.90;99.90;;;;;;4974173;28;20038;-65
2023/05/15 03:28:01;;;;;;;347.90;76.70;;;9.90;99.90;;;;;;4962826;28;20133;-65
2023/05/15 03:30:26;;;;;;;316.73;79.22;;;10.00;99.90;;;;;;5000492;28;20054;-65
2023/05/15 03:32:52;;;;;;;296.45;70.97;;;9.90;99.90;;;;;;4983667;28;20080;-65
2023/05/15 03:35:18;;;;;;;200.40;72.05;;;10.00;99.90;;;;;;4976697;28;20520;-65
2023/05/15 03:37:44;;;;;;;428.58;80.80;;;9.90;99.90;;;;;;4998569;28;20110;-64
2023/05/15 03:40:10;;;;;;;256.33;73.80;;;9.90;99.90;;;;;;4977758;28;20077;-64
2023/05/15 03:42:36;;;;;;;254.95;78.93;;;9.90;99.90;;;;;;4980951;28;20045;-64
2023/05/15 03:45:02;;;;;;;229.52;74.47;;;10.00;99.90;;;;;;4980944;28;20262;-64
2023/05/15 03:47:27;;;;;;;298.85;71.10;;;10.00;99.90;;;;;;4978754;28;20038;-64
2023/05/15 03:49:53;;;;;;;335.52;75.88;;;9.80;99.90;;;;;;4995662;28;20057;-64
2023/05/15 03:52:19;;;;;;;201.13;66.22;;;9.80;99.90;;;;;;4980525;28;20042;-65
2023/05/15 03:54:44;;;;;;;304.77;70.35;;;9.80;99.90;;;;;;5013584;28;20042;-64
2023/05/15 03:57:11;;;;;;;200.27;60.00;;;10.00;99.90;;;;;;4975937;28;20125;-65
2023/05/15 03:59:36;;;;;;;171.30;61.20;;;10.00;99.90;;;;;;4965036;28;20418;-65
2023/05/15 04:02:02;;;;;;;168.18;56.30;;;10.00;99.90;;;;;;4974951;28;20044;-64
2023/05/15 04:04:28;;;;;;;125.55;53.15;;;9.90;99.90;;;;;;4980960;28;20604;-64
2023/05/15 04:06:53;;;;;;;128.65;52.13;;;9.80;99.90;;;;;;4997053;28;20247;-64
2023/05/15 04:09:19;;;;;;;110.22;49.88;;;9.80;99.90;;;;;;4958155;28;20042;-65
2023/05/15 04:11:45;;;;;;;96.28;48.55;;;9.90;99.90;;;;;;4977914;28;20069;-65
2023/05/15 04:14:11;;;;;;;96.13;49.22;;;9.90;99.90;;;;;;4977927;28;20304;-65
2023/05/15 04:16:37;;;;;;;79.07;45.83;;;9.70;99.90;;;;;;4976138;28;20376;-64
2023/05/15 04:19:02;;;;;;;78.53;45.42;;;9.70;99.90;;;;;;4972858;28;20069;-64
2023/05/15 04:21:28;;;;;;;77.70;44.20;;;9.80;99.90;;;;;;4959713;28;20038;-64
2023/05/15 04:23:54;;;;;;;80.28;46.35;;;9.80;99.90;;;;;;4964076;28;20599;-64
2023/05/15 04:26:20;;;;;;;72.40;44.10;;;9.70;99.90;;;;;;4945257;28;20532;-65
2023/05/15 04:28:46;;;;;;;64.43;39.60;;;9.80;99.90;;;;;;5018484;28;20366;-64
2023/05/15 04:31:12;;;;;;;67.10;42.35;;;9.70;99.90;;;;;;4994052;28;20297;-65
2023/05/15 04:33:38;;;;;;;64.55;42.28;;;9.80;99.90;;;;;;4964355;28;20484;-64
2023/05/15 04:36:08;;;;;;;65.70;44.78;;;9.60;99.90;;;;;;4991607;28;20176;-65
2023/05/15 04:38:34;;;;;;;65.22;46.47;;;9.60;99.90;;;;;;4988701;28;20048;-64
2023/05/15 04:41:00;;;;;;;66.00;47.15;;;9.60;99.90;;;;;;4976793;28;20034;-64
2023/05/15 04:43:25;;;;;;;64.53;48.28;;;9.60;99.90;;;;;;4971769;28;20130;-64
2023/05/15 04:45:51;;;;;;;65.03;48.00;;;9.60;99.90;;;;;;4959228;28;20086;-64
2023/05/15 04:48:18;;;;;;;66.22;48.25;;;9.60;99.90;;;;;;4978545;28;20050;-65
2023/05/15 04:50:44;;;;;;;46.22;40.13;;;9.70;99.90;;;;;;4976560;28;20524;-66
2023/05/15 04:53:09;;;;;;;56.88;46.10;;;9.80;99.90;;;;;;4995883;28;20576;-65
2023/05/15 04:55:35;;;;;;;48.10;42.78;;;9.70;99.90;;;;;;4980196;28;20042;-64
2023/05/15 04:58:01;;;;;;;51.45;42.95;;;9.70;99.90;;;;;;4963788;28;20269;-64
2023/05/15 05:00:27;;;;;;;46.35;40.35;;;9.80;99.90;;;;;;4967747;28;20075;-65
2023/05/15 05:02:53;;;;;;;42.50;36.17;;;9.90;99.90;;;;;;4969338;28;20676;-65
2023/05/15 05:05:19;;;;;;;39.28;35.08;;;10.00;99.90;;;;;;4947141;28;20042;-66
2023/05/15 05:07:45;;;;;;;38.95;34.67;;;9.90;99.90;;;;;;4962809;28;20098;-64
2023/05/15 05:10:11;;;;;;;39.90;35.50;;;9.90;99.90;;;;;;5004236;28;20580;-64
2023/05/15 05:12:37;;;;;;;44.03;38.80;;;10.00;99.90;;;;;;4967225;28;20052;-64
2023/05/15 05:15:03;;;;;;;39.70;35.55;;;10.10;99.90;;;;;;4982678;28;20428;-64
2023/05/15 05:17:29;;;;;;;30.65;27.45;;;10.20;99.90;;;;;;4984405;28;20187;-64
2023/05/15 05:19:55;;;;;;;31.05;27.75;;;10.20;99.90;;;;;;4967907;28;20369;-64
2023/05/15 05:22:20;;;;;;;33.05;29.65;;;10.40;99.90;;;;;;4948636;28;20038;-64
2023/05/15 05:24:46;;;;;;;35.25;31.65;;;10.30;99.90;;;;;;4975699;28;20213;-64
2023/05/15 05:27:13;;;;;;;33.33;30.02;;;10.30;99.90;;;;;;4962894;28;20509;-63
2023/05/15 05:29:39;;;;;;;32.65;29.33;;;10.30;99.90;;;;;;4960421;28;20415;-63
2023/05/15 05:32:06;;;;;;;33.67;30.30;;;10.30;99.90;;;;;;5010949;28;20127;-64
2023/05/15 05:34:32;;;;;;;32.58;29.35;;;10.40;99.90;;;;;;4969885;28;20038;-63
2023/05/15 05:36:57;;;;;;;28.52;25.70;;;10.30;99.90;;;;;;4982074;28;20068;-64
2023/05/15 05:39:23;;;;;;;28.77;26.08;;;10.30;94.80;;;;;;4983531;28;20099;-64
2023/05/15 05:41:49;;;;;;;29.08;26.35;;;10.40;99.90;;;;;;4960221;28;20420;-64
2023/05/15 05:44:15;;;;;;;29.27;26.30;;;10.70;99.90;;;;;;4960289;28;20077;-63
2023/05/15 05:46:41;;;;;;;30.63;27.70;;;10.70;93.80;;;;;;4965023;28;20060;-64
2023/05/15 05:49:06;;;;;;;30.83;27.63;;;10.80;88.30;;;;;;4977170;28;20034;-63
2023/05/15 05:51:35;;;;;;;30.27;27.13;;;10.90;75.90;;;;;;4980212;28;20045;-64
2023/05/15 05:54:01;;;;;;;27.27;24.67;;;10.90;3.10;;;;;;4959745;28;20045;-63
2023/05/15 05:56:27;;;;;;;28.42;25.50;;;10.90;1.00;;;;;;4980760;28;20382;-64
2023/05/15 05:58:53;;;;;;;28.50;25.88;;;11.00;1.00;;;;;;4960232;28;20046;-64
2023/05/15 06:01:19;;;;;;;25.40;23.10;;;11.20;1.00;;;;;;4974257;28;20221;-64
2023/05/15 06:03:45;;;;;;;28.08;25.08;;;11.30;1.00;;;;;;4970784;28;20042;-63
2023/05/15 06:06:11;;;;;;;28.90;26.13;;;11.30;99.90;;;;;;4961501;28;20037;-64
2023/05/15 06:08:36;;;;;;;25.35;22.80;;;11.50;99.90;;;;;;4991409;28;20038;-64
2023/05/15 06:11:02;;;;;;;25.05;22.63;;;11.50;99.90;;;;;;4990959;28;20057;-64
2023/05/15 06:13:28;;;;;;;27.67;24.90;;;11.60;99.90;;;;;;4961057;28;20276;-64
2023/05/15 06:15:54;;;;;;;26.45;24.00;;;11.50;99.90;;;;;;4970740;28;20043;-65
2023/05/15 06:18:21;;;;;;;26.52;24.00;;;11.70;99.90;;;;;;4973995;28;20044;-64
2023/05/15 06:20:47;;;;;;;26.92;24.35;;;11.70;99.90;;;;;;4958355;28;20072;-64
2023/05/15 06:23:13;;;;;;;25.10;22.65;;;11.90;99.90;;;;;;4973660;28;20065;-63
2023/05/15 06:25:39;;;;;;;25.08;22.77;;;11.90;99.90;;;;;;4986908;28;20050;-63
2023/05/15 06:28:05;;;;;;;22.42;20.40;;;12.00;99.90;;;;;;4974873;28;20502;-64
2023/05/15 06:30:30;;;;;;;20.63;18.52;;;12.00;99.90;;;;;;5020309;28;20046;-63
2023/05/15 06:32:56;;;;;;;20.45;18.70;;;12.10;99.90;;;;;;4984927;28;20405;-63
2023/05/15 06:35:25;;;;;;;16.13;14.63;;;12.20;99.90;;;;;;4989885;28;20125;-63
2023/05/15 06:37:51;;;;;;;17.10;15.57;;;12.60;1.00;;;;;;4983884;28;20050;-63
2023/05/15 06:40:17;;;;;;;17.13;15.55;;;12.90;99.90;;;;;;4968957;28;20042;-63
2023/05/15 06:42:43;;;;;;;16.63;15.13;;;13.10;1.00;;;;;;4994496;28;20026;-64
2023/05/15 06:45:09;;;;;;;15.60;14.30;;;13.10;1.00;;;;;;4982538;28;20329;-64
2023/05/15 06:47:35;;;;;;;16.30;14.93;;;13.00;1.00;;;;;;4982777;28;20085;-65
2023/05/15 06:50:00;;;;;;;15.70;14.13;;;12.90;1.00;;;;;;5012811;28;20124;-66
2023/05/15 06:52:26;;;;;;;14.02;12.63;;;13.20;1.00;;;;;;4973536;28;20381;-65
2023/05/15 06:54:52;;;;;;;13.25;11.65;;;13.50;1.00;;;;;;4961313;28;20053;-64
2023/05/15 06:57:18;;;;;;;12.80;11.70;;;13.90;1.00;;;;;;4993109;28;20042;-65
2023/05/15 06:59:45;;;;;;;12.75;11.63;;;14.20;99.90;;;;;;5018965;28;20164;-66
2023/05/15 07:02:11;;;;;;;11.40;10.50;;;14.60;99.90;;;;;;4971189;28;20081;-63
2023/05/15 07:04:36;;;;;;;13.38;12.10;;;14.60;99.90;;;;;;5003336;28;20531;-64
2023/05/15 07:07:02;;;;;;;14.15;12.85;;;15.00;99.90;;;;;;4970036;28;20396;-64
2023/05/15 07:09:28;;;;;;;15.75;12.13;;;15.00;99.90;;;;;;4956469;28;20539;-67
2023/05/15 07:11:54;;;;;;;14.65;13.30;;;15.00;99.90;;;;;;5013564;28;20077;-65
2023/05/15 07:14:19;;;;;;;11.23;10.05;;;14.70;99.90;;;;;;4979791;28;20423;-63
2023/05/15 07:16:46;;;;;;;11.50;10.50;;;14.40;99.90;;;;;;4986494;28;20476;-63
2023/05/15 07:19:12;;;;;;;10.82;9.73;;;14.60;99.90;;;;;;4985502;28;20144;-64
2023/05/15 07:21:40;;;;;;;10.00;9.00;;;14.90;99.90;;;;;;4983733;28;20046;-63
2023/05/15 07:24:06;;;;;;;10.00;8.48;;;15.30;99.90;;;;;;4979364;28;20046;-63
2023/05/15 07:26:32;;;;;;;8.13;6.93;;;15.60;99.90;;;;;;4984413;28;20045;-63
2023/05/15 07:28:58;;;;;;;7.97;6.82;;;15.80;99.90;;;;;;4965625;28;20173;-68
2023/05/15 07:31:24;;;;;;;8.35;7.45;;;15.80;99.90;;;;;;4995750;28;20117;-63
2023/05/15 07:33:50;;;;;;;9.15;8.25;;;14.80;99.90;;;;;;4982041;28;20046;-66
2023/05/15 07:36:16;;;;;;;9.65;8.48;;;14.90;99.90;;;;;;4952123;28;20442;-64
2023/05/15 07:38:41;;;;;;;9.18;7.80;;;15.10;99.90;;;;;;4974461;28;20080;-64
2023/05/15 07:41:07;;;;;;;8.65;7.38;;;15.20;99.90;;;;;;4970741;28;20042;-64
2023/05/15 07:43:33;;;;;;;7.78;6.55;;;15.10;99.90;;;;;;4971707;28;20034;-64
2023/05/15 07:45:59;;;;;;;6.95;6.25;;;15.40;99.90;;;;;;4956166;28;21665;-63
2023/05/15 07:48:24;;;;;;;7.75;6.90;;;15.80;99.90;;;;;;4991859;28;20053;-64
2023/05/15 07:50:51;;;;;;;8.57;6.22;;;16.00;99.90;;;;;;4972478;28;20050;-64
2023/05/15 07:53:17;;;;;;;7.75;5.65;;;16.40;99.90;;;;;;4976594;28;20056;-65
2023/05/15 07:55:43;;;;;;;6.93;6.25;;;16.60;99.90;;;;;;4941894;28;20077;-64
2023/05/15 07:58:09;;;;;;;7.70;5.95;;;16.90;99.90;;;;;;4941259;28;20299;-66
2023/05/15 08:00:35;;;;;;;5.32;4.82;;;17.20;99.90;;;;;;5002712;28;20603;-65
2023/05/15 08:03:01;;;;;;;5.22;4.45;;;17.40;98.00;;;;;;4959273;28;20887;-65
2023/05/15 08:05:28;;;;;;;4.85;4.40;;;17.40;99.50;;;;;;4960469;28;20446;-65
2023/05/15 08:07:55;;;;;;;5.68;5.18;;;17.50;1.00;;;;;;4945083;28;20592;-65
2023/05/15 08:10:20;;;;;;;8.02;5.50;;;17.30;1.00;;;;;;4957534;28;20038;-65
2023/05/15 08:12:47;;;;;;;6.28;5.50;;;17.60;1.00;;;;;;4970476;28;20042;-65
2023/05/15 08:15:13;;;;;;;5.22;3.83;;;17.70;1.00;;;;;;4942486;28;20451;-65
2023/05/15 08:17:39;;;;;;;5.10;3.40;;;17.90;1.00;;;;;;4974073;28;20048;-65
2023/05/15 08:20:06;;;;;;;4.28;3.60;;;18.00;1.00;;;;;;4957380;28;20042;-65
2023/05/15 08:22:32;;;;;;;6.00;3.95;;;18.10;1.00;;;;;;4956718;28;20586;-64
2023/05/15 08:24:59;;;;;;;4.22;3.30;;;18.10;1.00;;;;;;4973093;28;20045;-65
2023/05/15 08:27:25;;;;;;;4.00;2.90;;;18.40;1.00;;;;;;4957946;28;20104;-63
2023/05/15 08:29:51;;;;;;;4.75;2.90;;;18.20;1.00;;;;;;4986151;28;20058;-65
2023/05/15 08:32:17;;;;;;;5.72;3.10;;;18.00;1.00;;;;;;4964593;28;20763;-64
2023/05/15 08:34:43;;;;;;;4.15;2.95;;;17.90;99.90;;;;;;4953362;28;20139;-64
2023/05/15 08:37:09;;;;;;;5.13;2.92;;;17.80;1.00;;;;;;4989442;28;20053;-65
2023/05/15 08:39:35;;;;;;;6.13;3.20;;;17.80;1.00;;;;;;4950238;28;20042;-64
2023/05/15 08:42:34;;;;;;;4.13;3.53;;;18.00;1.00;;;;;;4981971;28;20405;-65
2023/05/15 08:45:00;;;;;;;8.43;3.78;;;18.00;1.00;;;;;;4967660;28;20034;-63
2023/05/15 08:47:33;;;;;;;3.67;2.63;;;18.20;1.00;;;;;;4971646;28;21102;-66
2023/05/15 08:50:13;;;;;;;4.53;3.15;;;18.30;99.90;;;;;;4970828;28;20089;-64
2023/05/15 08:52:47;;;;;;;3.47;2.78;;;18.40;99.90;;;;;;4970046;28;20073;-63
2023/05/15 08:56:02;;;;;;;2.70;2.40;;;18.50;99.90;;;;;;4988916;28;20049;-65
2023/05/15 08:58:51;;;;;;;3.15;2.38;;;18.80;99.90;;;;;;4996796;28;20066;-64
2023/05/15 09:01:16;;;;;;;4.05;2.55;;;19.20;99.90;;;;;;4966518;28;20038;-66
2023/05/15 09:03:42;;;;;;;3.42;2.38;;;19.20;99.90;;;;;;4947123;28;20049;-65
2023/05/15 09:06:09;;;;;;;2.42;1.90;;;19.00;99.90;;;;;;4948532;28;20311;-65
2023/05/15 09:08:35;;;;;;;3.55;2.08;;;18.80;99.90;;;;;;4981658;28;20057;-64
2023/05/15 09:11:03;;;;;;;3.05;2.30;;;18.70;99.90;;;;;;4965208;28;20050;-65
2023/05/15 09:13:30;;;;;;;5.45;2.83;;;19.00;99.90;;;;;;4949715;28;20050;-66
2023/05/15 09:15:55;;;;;;;3.65;2.70;;;19.00;99.90;;;;;;4983324;28;20046;-65
2023/05/15 09:18:22;;;;;;;4.05;2.58;;;18.90;99.90;;;;;;4966388;28;20680;-64
2023/05/15 09:20:47;;;;;;;6.97;2.50;;;19.00;99.90;;;;;;4963236;28;20046;-65
2023/05/15 09:23:26;;;;;;;2.83;2.20;;;19.10;99.90;;;;;;4957898;28;20554;-65
2023/05/15 09:25:55;;;;;;;4.82;2.25;;;19.30;99.90;;;;;;4976051;28;20610;-66
2023/05/15 09:28:26;;;;;;;2.80;2.00;;;19.30;99.90;;;;;;5008845;28;20730;-65
2023/05/15 09:31:03;;;;;;;2.63;2.38;;;19.60;99.90;;;;;;4960992;28;20069;-67
2023/05/15 09:33:34;;;;;;;3.80;2.30;;;19.40;99.90;;;;;;4979042;28;20468;-66
2023/05/15 09:36:01;;;;;;;3.63;2.38;;;19.40;99.90;;;;;;4963924;28;20601;-67
2023/05/15 09:38:27;;;;;;;4.25;2.50;;;19.40;99.90;;;;;;4978179;28;20038;-66
2023/05/15 09:41:05;;;;;;;3.50;2.53;;;19.70;99.90;;;;;;4962697;28;20042;-66
2023/05/15 09:43:38;;;;;;;4.10;2.92;;;19.20;99.90;;;;;;4956349;28;20117;-66
2023/05/15 09:46:05;;;;;;;6.60;3.40;;;19.30;99.90;;;;;;4974066;28;20133;-64
2023/05/15 09:48:31;;;;;;;3.83;2.65;;;19.40;99.90;;;;;;4961389;28;20042;-65
2023/05/15 09:50:57;;;;;;;5.38;3.95;;;19.40;99.90;;;;;;4960935;28;20056;-64
2023/05/15 09:53:23;;;;;;;3.78;2.55;;;19.30;99.90;;;;;;4981016;28;20046;-66
2023/05/15 09:59:56;;;;;;;3.90;2.70;;;19.00;99.90;;;;;;4992750;28;20114;-65
2023/05/15 10:02:35;;;;;;;5.80;3.05;;;18.70;99.90;;;;;;4961257;28;20313;-66
2023/05/15 10:05:00;;;;;;;4.45;2.58;;;18.40;99.90;;;;;;4960514;28;20104;-66
2023/05/15 10:07:30;;;;;;;3.20;2.03;;;18.50;99.90;;;;;;5005572;28;20409;-66
2023/05/15 10:09:57;;;;;;;3.95;2.65;;;18.80;99.90;;;;;;4957568;28;20039;-66
2023/05/15 10:12:23;;;;;;;3.95;2.13;;;19.00;99.90;;;;;;4946306;28;20057;-66
2023/05/15 10:14:51;;;;;;;6.30;2.50;;;19.10;99.90;;;;;;4977164;28;20337;-66
2023/05/15 10:17:19;;;;;;;4.63;2.20;;;19.50;99.90;;;;;;4973124;28;20038;-65
2023/05/15 10:19:46;;;;;;;4.75;2.92;;;19.70;99.90;;;;;;4976481;28;20046;-65
2023/05/15 10:22:15;;;;;;;5.43;2.97;;;19.90;99.90;;;;;;4960718;28;20928;-66
2023/05/15 10:24:45;;;;;;;3.00;2.45;;;19.90;99.90;;;;;;4950345;28;20116;-66
2023/05/15 10:27:12;;;;;;;3.85;2.42;;;20.20;99.90;;;;;;4975125;28;20050;-66
2023/05/15 10:29:38;;;;;;;23.48;6.35;;;20.20;99.90;;;;;;4958445;28;20073;-66
2023/05/15 10:32:04;;;;;;;20.15;8.30;;;20.00;99.90;;;;;;4975972;28;20046;-67
2023/05/15 10:34:31;;;;;;;4.20;2.90;;;19.90;99.90;;;;;;4942712;28;20049;-68
2023/05/15 10:36:57;;;;;;;11.95;4.55;;;20.10;99.90;;;;;;4943801;28;20112;-67
2023/05/15 10:39:26;;;;;;;3.92;2.55;;;20.50;99.90;;;;;;4977918;28;20046;-68
2023/05/15 10:41:52;;;;;;;7.43;4.38;;;20.10;49.60;;;;;;4961198;28;20447;-66
2023/05/15 10:44:19;;;;;;;3.50;3.20;;;19.30;15.40;;;;;;4973973;28;20038;-66
2023/05/15 10:46:46;;;;;;;10.52;4.93;;;19.40;89.30;;;;;;4961486;28;20045;-66
2023/05/15 10:49:12;;;;;;;4.90;2.67;;;19.40;99.90;;;;;;4992192;28;20693;-67
2023/05/15 10:51:39;;;;;;;5.10;2.90;;;19.40;99.90;;;;;;4956552;28;20049;-67
2023/05/15 10:54:05;;;;;;;11.18;3.33;;;19.60;51.70;;;;;;4940585;28;20053;-67
2023/05/15 10:56:36;;;;;;;4.88;2.20;;;19.20;1.00;;;;;;4970118;28;20579;-66
2023/05/15 10:59:09;;;;;;;29.80;4.50;;;19.00;28.00;;;;;;4970908;28;21020;-68
2023/05/15 11:01:37;;;;;;;3.22;2.33;;;18.80;52.30;;;;;;4956143;28;20042;-66
2023/05/15 11:04:14;;;;;;;2.85;2.25;;;19.10;15.80;;;;;;4971791;28;20050;-68
2023/05/15 11:06:44;;;;;;;3.88;2.20;;;19.20;1.00;;;;;;4973862;28;20038;-66
2023/05/15 11:09:25;;;;;;;3.53;2.00;;;18.80;1.00;;;;;;4959469;28;20040;-68
2023/05/15 11:11:51;;;;;;;4.50;2.22;;;19.30;1.00;;;;;;4977744;28;20523;-68
2023/05/15 11:14:25;;;;;;;4.18;2.58;;;18.00;66.40;;;;;;4955166;28;20038;-67
2023/05/15 11:16:54;;;;;;;2.28;1.80;;;18.50;37.30;;;;;;4954838;28;20042;-66
2023/05/15 11:19:33;;;;;;;2.42;2.03;;;19.30;49.50;;;;;;4957566;28;20042;-67
2023/05/15 11:22:08;;;;;;;3.85;2.00;;;19.30;6.60;;;;;;4977232;28;20331;-68
2023/05/15 11:24:58;;;;;;;4.32;2.15;;;18.80;11.50;;;;;;4975859;28;20042;-67
2023/05/15 11:27:28;;;;;;;3.97;2.92;;;19.10;2.90;;;;;;4975595;28;20095;-67
2023/05/15 11:30:17;;;;;;;3.70;2.35;;;18.90;33.60;;;;;;4974126;28;20065;-66
2023/05/15 11:32:46;;;;;;;2.78;2.22;;;18.50;69.80;;;;;;4971441;28;20050;-68
2023/05/15 11:35:33;;;;;;;4.57;2.10;;;18.30;71.10;;;;;;4973157;28;20278;-67
2023/05/15 11:38:01;;;;;;;3.10;1.92;;;18.90;36.20;;;;;;4962286;28;20038;-67
2023/05/15 11:40:30;;;;;;;3.13;1.98;;;18.30;28.20;;;;;;4939657;28;20393;-67
2023/05/15 11:43:17;;;;;;;4.13;2.80;;;18.30;46.10;;;;;;4963684;28;20108;-67
2023/05/15 11:45:45;;;;;;;4.15;2.60;;;18.30;19.20;;;;;;4990361;28;20049;-67
2023/05/15 11:48:15;;;;;;;3.85;3.50;;;19.00;11.90;;;;;;4977292;28;20046;-66
2023/05/15 11:50:42;;;;;;;5.18;4.13;;;18.30;38.40;;;;;;4971386;28;20109;-66
2023/05/15 11:53:09;;;;;;;5.30;2.90;;;18.20;99.90;;;;;;4973125;28;20057;-66
2023/05/15 11:55:39;;;;;;;3.67;2.70;;;17.40;99.90;;;;;;4959645;28;20050;-66
2023/05/15 11:58:10;;;;;;;7.22;3.50;;;17.10;99.90;;;;;;4987711;28;20697;-67
2023/05/15 12:00:36;;;;;;;5.15;4.18;;;16.60;99.90;;;;;;5006234;28;20045;-67
2023/05/15 12:03:05;;;;;;;4.60;4.20;;;16.40;99.90;;;;;;4963764;28;20057;-67
2023/05/15 12:05:31;;;;;;;5.35;4.22;;;16.30;99.90;;;;;;4976540;28;20133;-67
2023/05/15 12:07:57;;;;;;;5.03;4.60;;;16.50;99.90;;;;;;4992873;28;20038;-67
2023/05/15 12:10:23;;;;;;;3.67;3.38;;;16.50;99.90;;;;;;4993996;28;20376;-66
2023/05/15 12:12:49;;;;;;;6.40;3.50;;;17.20;99.90;;;;;;4975387;28;20058;-67
2023/05/15 12:15:16;;;;;;;5.88;3.65;;;17.20;99.90;;;;;;4958341;28;20050;-66
2023/05/15 12:17:43;;;;;;;3.58;3.28;;;17.90;99.90;;;;;;4958628;28;20606;-67
2023/05/15 12:20:18;;;;;;;4.47;3.50;;;17.30;99.90;;;;;;4959099;28;20508;-68
2023/05/15 12:22:44;;;;;;;4.63;3.78;;;17.10;99.90;;;;;;4958969;28;20046;-67
2023/05/15 12:25:11;;;;;;;6.93;3.58;;;17.60;99.90;;;;;;4957043;28;20579;-67
2023/05/15 12:27:40;;;;;;;3.85;3.40;;;18.00;99.90;;;;;;4959878;28;20443;-68
2023/05/15 12:30:07;;;;;;;4.07;3.67;;;17.70;99.90;;;;;;4983967;28;20062;-67
2023/05/15 12:32:35;;;;;;;3.95;3.28;;;18.40;99.90;;;;;;4966528;28;20271;-66
2023/05/15 12:35:02;;;;;;;4.88;3.50;;;18.60;99.90;;;;;;4967061;28;20066;-67
2023/05/15 12:37:31;;;;;;;3.67;2.72;;;19.00;99.90;;;;;;4963116;28;20053;-68
2023/05/15 12:40:08;;;;;;;3.65;2.75;;;19.20;18.20;;;;;;4982694;28;20128;-67
2023/05/15 12:42:42;;;;;;;3.60;2.90;;;19.60;24.30;;;;;;4976099;28;20197;-68
2023/05/15 12:45:16;;;;;;;3.10;2.78;;;18.80;1.00;;;;;;4967004;28;20444;-68